Time;durP1;ratioP1;P1;durP2;ratioP2;P2;SDS_P1;SDS_P2;PMS_P1;PMS_P2;Temp;Humidity;BMP_temperature;BMP_pressure;BME280_temperature;BME280_humidity;BME280_pressure;Samples;Min_cycle;Max_cycle;Signal;HPM_P1;HPM_P2
2022/03/17 00:01:02;;;;;;;;;;;;;;;;;;4221662;28;827;-57
2022/03/17 00:03:23;;;;;;;;;;;;;;;;;;4222375;28;963;-57
2022/03/17 00:05:44;;;;;;;;;;;;;;;;;;4221514;28;1031;-57
2022/03/17 00:08:05;;;;;;;;;;;;;;;;;;4221602;28;925;-57
2022/03/17 00:10:26;;;;;;;;;;;;;;;;;;4221559;28;1233;-57
2022/03/17 00:12:46;;;;;;;;;;;;;;;;;;4221746;28;1000;-57
2022/03/17 00:15:07;;;;;;;;;;;;;;;;;;4221698;28;1983;-57
2022/03/17 00:17:27;;;;;;;;;;;;;;;;;;4206789;28;834;-57
2022/03/17 00:19:48;;;;;;;;;;;;;;;;;;4221500;28;1007;-57
2022/03/17 00:22:09;;;;;;;;;;;;;;;;;;4220712;28;865;-59
2022/03/17 00:24:30;;;;;;;;;;;;;;;;;;4221438;28;845;-59
2022/03/17 00:26:51;;;;;;;;;;;;;;;;;;4206212;28;851;-59
2022/03/17 00:29:12;;;;;;;;;;;;;;;;;;4205670;28;1162;-60
2022/03/17 00:31:32;;;;;;;;;;;;;;;;;;4221366;28;961;-59
2022/03/17 00:33:53;;;;;;;;;;;;;;;;;;4212881;28;1914;-59
2022/03/17 00:36:13;;;;;;;;;;;;;;;;;;4204752;28;957;-60
2022/03/17 00:38:34;;;;;;;;;;;;;;;;;;4203407;28;961;-59
2022/03/17 00:40:54;;;;;;;;;;;;;;;;;;4203009;28;1006;-59
2022/03/17 00:43:15;;;;;;;;;;;;;;;;;;4204816;28;940;-59
2022/03/17 00:45:35;;;;;;;;;;;;;;;;;;4204962;28;1053;-59
2022/03/17 00:47:56;;;;;;;;;;;;;;;;;;4189083;28;1149;-59
2022/03/17 00:50:17;;;;;;;;;;;;;;;;;;4204162;28;950;-59
2022/03/17 00:52:37;;;;;;;;;;;;;;;;;;4204399;28;1013;-59
2022/03/17 00:54:58;;;;;;;;;;;;;;;;;;4203600;28;1915;-59
2022/03/17 00:57:19;;;;;;;;;;;;;;;;;;4204024;28;825;-59
2022/03/17 00:59:40;;;;;;;;;;;;;;;;;;4203775;28;994;-60
2022/03/17 01:02:00;;;;;;;;;;;;;;;;;;4202903;28;857;-59
2022/03/17 01:04:21;;;;;;;;;;;;;;;;;;4203222;28;995;-59
2022/03/17 01:06:42;;;;;;;;;;;;;;;;;;4202950;28;783;-59
2022/03/17 01:09:02;;;;;;;;;;;;;;;;;;4203108;28;971;-59
2022/03/17 01:11:22;;;;;;;;;;;;;;;;;;4204249;28;1022;-59
2022/03/17 01:13:43;;;;;;;;;;;;;;;;;;4204209;28;860;-60
2022/03/17 01:16:04;;;;;;;;;;;;;;;;;;4203162;28;962;-59
2022/03/17 01:18:24;;;;;;;;;;;;;;;;;;4202788;28;793;-59
2022/03/17 01:20:45;;;;;;;;;;;;;;;;;;4203982;28;821;-59
2022/03/17 01:23:06;;;;;;;;;;;;;;;;;;4202793;28;1028;-59
2022/03/17 01:25:26;;;;;;;;;;;;;;;;;;4208760;28;1645;-60
2022/03/17 01:27:46;;;;;;;;;;;;;;;;;;4209446;28;1357;-59
2022/03/17 01:30:09;;;;;;;;;;;;;;;;;;4204073;28;930;-59
2022/03/17 01:32:32;;;;;;;;;;;;;;;;;;4217038;28;886;-59
2022/03/17 01:34:53;;;;;;;;;;;;;;;;;;4203562;28;1905;-59
2022/03/17 01:37:14;;;;;;;;;;;;;;;;;;4216689;28;922;-59
2022/03/17 01:39:34;;;;;;;;;;;;;;;;;;4202681;28;934;-59
2022/03/17 01:41:55;;;;;;;;;;;;;;;;;;4201980;28;1029;-59
2022/03/17 01:44:16;;;;;;;;;;;;;;;;;;4201683;28;1046;-59
2022/03/17 01:49:11;;;;;;;;;;;;;;;;;;4203493;28;815;-60
2022/03/17 01:51:32;;;;;;;;;;;;;;;;;;4203625;28;872;-59
2022/03/17 01:53:52;;;;;;;;;;;;;;;;;;4203351;28;832;-59
2022/03/17 01:56:13;;;;;;;;;;;;;;;;;;4216635;28;927;-59
2022/03/17 01:58:34;;;;;;;;;;;;;;;;;;4201918;28;1316;-60
2022/03/17 02:04:14;;;;;;;;;;;;;;;;;;4204780;28;1985;-59
2022/03/17 02:06:34;;;;;;;;;;;;;;;;;;4192467;28;993;-61
2022/03/17 02:08:55;;;;;;;;;;;;;;;;;;4203287;28;864;-59
2022/03/17 02:13:54;;;;;;;;;;;;;;;;;;4202786;28;1022;-60
2022/03/17 02:16:16;;;;;;;;;;;;;;;;;;4202560;28;1205;-59
2022/03/17 02:18:37;;;;;;;;;;;;;;;;;;4202772;28;1095;-60
2022/03/17 02:20:59;;;;;;;;;;;;;;;;;;4187248;28;949;-59
2022/03/17 02:25:58;;;;;;;;;;;;;;;;;;4202675;28;950;-59
2022/03/17 02:28:20;;;;;;;;;;;;;;;;;;4202229;28;928;-59
2022/03/17 02:30:40;;;;;;;;;;;;;;;;;;4187840;28;974;-59
2022/03/17 02:33:00;;;;;;;;;;;;;;;;;;4202937;28;969;-59
2022/03/17 02:35:23;;;;;;;;;;;;;;;;;;4187720;28;1911;-59
2022/03/17 02:37:44;;;;;;;;;;;;;;;;;;4176602;28;880;-60
2022/03/17 02:40:05;;;;;;;;;;;;;;;;;;4206071;28;974;-59
2022/03/17 02:42:25;;;;;;;;;;;;;;;;;;4205984;28;856;-59
2022/03/17 02:44:47;;;;;;;;;;;;;;;;;;4187972;28;1261;-60
2022/03/17 02:47:08;;;;;;;;;;;;;;;;;;4188916;28;926;-59
2022/03/17 02:49:28;;;;;;;;;;;;;;;;;;4189382;28;822;-59
2022/03/17 02:51:49;;;;;;;;;;;;;;;;;;4189170;28;887;-59
2022/03/17 02:54:10;;;;;;;;;;;;;;;;;;4189193;28;940;-60
2022/03/17 02:56:30;;;;;;;;;;;;;;;;;;4189282;28;1018;-59
2022/03/17 02:58:51;;;;;;;;;;;;;;;;;;4187680;28;960;-60
2022/03/17 03:01:12;;;;;;;;;;;;;;;;;;4189104;28;950;-60
2022/03/17 03:03:32;;;;;;;;;;;;;;;;;;4189126;28;867;-59
2022/03/17 03:05:53;;;;;;;;;;;;;;;;;;4188990;28;866;-59
2022/03/17 03:08:14;;;;;;;;;;;;;;;;;;4188715;28;1377;-59
2022/03/17 03:10:35;;;;;;;;;;;;;;;;;;4188604;28;970;-59
2022/03/17 03:12:56;;;;;;;;;;;;;;;;;;4187689;28;873;-60
2022/03/17 03:15:16;;;;;;;;;;;;;;;;;;4189020;28;2004;-59
2022/03/17 03:17:37;;;;;;;;;;;;;;;;;;4188979;28;817;-60
2022/03/17 03:19:58;;;;;;;;;;;;;;;;;;4188711;28;876;-60
2022/03/17 03:22:18;;;;;;;;;;;;;;;;;;4188929;28;1172;-60
2022/03/17 03:24:39;;;;;;;;;;;;;;;;;;4189056;28;1034;-59
2022/03/17 03:26:59;;;;;;;;;;;;;;;;;;4187665;28;809;-59
2022/03/17 03:29:23;;;;;;;;;;;;;;;;;;4188831;28;822;-60
2022/03/17 03:31:43;;;;;;;;;;;;;;;;;;4188800;28;1021;-59
2022/03/17 03:34:04;;;;;;;;;;;;;;;;;;4188734;28;943;-59
2022/03/17 03:39:03;;;;;;;;;;;;;;;;;;4188677;28;885;-60
2022/03/17 03:41:24;;;;;;;;;;;;;;;;;;4188644;28;933;-60
2022/03/17 03:43:45;;;;;;;;;;;;;;;;;;4188211;28;840;-59
2022/03/17 03:46:05;;;;;;;;;;;;;;;;;;4187404;28;935;-59
2022/03/17 03:48:25;;;;;;;;;;;;;;;;;;4186751;28;798;-59
2022/03/17 03:50:47;;;;;;;;;;;;;;;;;;4187954;28;1050;-59
2022/03/17 03:53:08;;;;;;;;;;;;;;;;;;4188435;28;933;-59
2022/03/17 03:55:28;;;;;;;;;;;;;;;;;;4188460;28;1992;-59
2022/03/17 03:57:49;;;;;;;;;;;;;;;;;;4187934;28;1176;-59
2022/03/17 04:00:23;;;;;;;;;;;;;;;;;;4188195;28;953;-59
2022/03/17 04:02:44;;;;;;;;;;;;;;;;;;4188532;28;841;-60
2022/03/17 04:05:05;;;;;;;;;;;;;;;;;;4188059;28;994;-59
2022/03/17 04:07:25;;;;;;;;;;;;;;;;;;4188137;28;809;-60
2022/03/17 04:09:46;;;;;;;;;;;;;;;;;;4187202;28;1229;-59
2022/03/17 04:12:07;;;;;;;;;;;;;;;;;;4188054;28;1098;-60
2022/03/17 04:14:27;;;;;;;;;;;;;;;;;;4172299;28;1001;-59
2022/03/17 04:16:48;;;;;;;;;;;;;;;;;;4187989;28;1902;-59
2022/03/17 04:19:09;;;;;;;;;;;;;;;;;;4187922;28;1101;-60
2022/03/17 04:21:30;;;;;;;;;;;;;;;;;;4186948;28;1131;-60
2022/03/17 04:23:50;;;;;;;;;;;;;;;;;;4187946;28;858;-60
2022/03/17 04:26:11;;;;;;;;;;;;;;;;;;4187680;28;876;-60
2022/03/17 04:28:31;;;;;;;;;;;;;;;;;;4187959;28;935;-59
2022/03/17 04:30:52;;;;;;;;;;;;;;;;;;4187509;28;934;-60
2022/03/17 04:33:13;;;;;;;;;;;;;;;;;;4187774;28;828;-59
2022/03/17 04:35:33;;;;;;;;;;;;;;;;;;4187690;28;1913;-60
2022/03/17 04:37:54;;;;;;;;;;;;;;;;;;4187877;28;804;-60
2022/03/17 04:40:15;;;;;;;;;;;;;;;;;;4187974;28;941;-59
2022/03/17 04:42:35;;;;;;;;;;;;;;;;;;4186774;28;1138;-60
2022/03/17 04:44:56;;;;;;;;;;;;;;;;;;4194659;28;1065;-60
2022/03/17 04:47:17;;;;;;;;;;;;;;;;;;4204103;28;1015;-59
2022/03/17 04:49:38;;;;;;;;;;;;;;;;;;4204331;28;807;-60
2022/03/17 04:51:58;;;;;;;;;;;;;;;;;;4204307;28;1008;-59
2022/03/17 04:54:19;;;;;;;;;;;;;;;;;;4204229;28;858;-59
2022/03/17 04:56:39;;;;;;;;;;;;;;;;;;4204173;28;1909;-59
2022/03/17 04:59:00;;;;;;;;;;;;;;;;;;4188225;28;846;-59
2022/03/17 05:01:21;;;;;;;;;;;;;;;;;;4204161;28;1138;-59
2022/03/17 05:03:41;;;;;;;;;;;;;;;;;;4188976;28;999;-59
2022/03/17 05:06:02;;;;;;;;;;;;;;;;;;4204319;28;841;-60
2022/03/17 05:08:22;;;;;;;;;;;;;;;;;;4203685;28;868;-59
2022/03/17 05:10:44;;;;;;;;;;;;;;;;;;4203760;28;799;-59
2022/03/17 05:13:04;;;;;;;;;;;;;;;;;;4203857;28;936;-60
2022/03/17 05:15:26;;;;;;;;;;;;;;;;;;4203824;28;1921;-59
2022/03/17 05:17:47;;;;;;;;;;;;;;;;;;4204241;28;925;-59
2022/03/17 05:20:08;;;;;;;;;;;;;;;;;;4203880;28;991;-59
2022/03/17 05:22:29;;;;;;;;;;;;;;;;;;4203781;28;839;-59
2022/03/17 05:24:50;;;;;;;;;;;;;;;;;;4204024;28;950;-59
2022/03/17 05:27:10;;;;;;;;;;;;;;;;;;4204696;28;818;-60
2022/03/17 05:29:31;;;;;;;;;;;;;;;;;;4203787;28;1032;-60
2022/03/17 05:31:52;;;;;;;;;;;;;;;;;;4188849;28;787;-59
2022/03/17 05:34:12;;;;;;;;;;;;;;;;;;4203913;28;821;-60
2022/03/17 05:36:33;;;;;;;;;;;;;;;;;;4203566;28;1910;-60
2022/03/17 05:38:54;;;;;;;;;;;;;;;;;;4188167;28;963;-59
2022/03/17 05:41:15;;;;;;;;;;;;;;;;;;4203467;28;1020;-60
2022/03/17 05:43:36;;;;;;;;;;;;;;;;;;4203615;28;1024;-60
2022/03/17 05:45:57;;;;;;;;;;;;;;;;;;4203302;28;1304;-59
2022/03/17 05:48:18;;;;;;;;;;;;;;;;;;4203279;28;987;-60
2022/03/17 05:50:38;;;;;;;;;;;;;;;;;;4188153;28;935;-59
2022/03/17 05:52:59;;;;;;;;;;;;;;;;;;4203246;28;1264;-59
2022/03/17 05:55:20;;;;;;;;;;;;;;;;;;4203425;28;986;-60
2022/03/17 05:57:41;;;;;;;;;;;;;;;;;;4188171;28;875;-59
2022/03/17 06:00:01;;;;;;;;;;;;;;;;;;4203275;28;976;-59
2022/03/17 06:02:22;;;;;;;;;;;;;;;;;;4203221;28;1241;-59
2022/03/17 06:04:43;;;;;;;;;;;;;;;;;;4203468;28;878;-59
2022/03/17 06:07:04;;;;;;;;;;;;;;;;;;4202938;28;983;-59
2022/03/17 06:09:24;;;;;;;;;;;;;;;;;;4203053;28;948;-59
2022/03/17 06:11:45;;;;;;;;;;;;;;;;;;4202688;28;817;-59
2022/03/17 06:14:06;;;;;;;;;;;;;;;;;;4203154;28;1128;-60
2022/03/17 06:16:27;;;;;;;;;;;;;;;;;;4203351;28;1890;-59
2022/03/17 06:18:48;;;;;;;;;;;;;;;;;;4201574;28;1320;-60
2022/03/17 06:21:09;;;;;;;;;;;;;;;;;;4211675;28;1194;-59
2022/03/17 06:23:30;;;;;;;;;;;;;;;;;;4219784;28;1164;-59
2022/03/17 06:25:51;;;;;;;;;;;;;;;;;;4219594;28;817;-59
2022/03/17 06:28:13;;;;;;;;;;;;;;;;;;4219505;28;861;-60
2022/03/17 06:30:35;;;;;;;;;;;;;;;;;;4216387;28;1353;-59
2022/03/17 06:32:55;;;;;;;;;;;;;;;;;;4216278;28;2151;-60
2022/03/17 06:35:17;;;;;;;;;;;;;;;;;;4217770;28;1365;-59
2022/03/17 06:37:38;;;;;;;;;;;;;;;;;;4213620;28;1906;-60
2022/03/17 06:39:58;;;;;;;;;;;;;;;;;;4217109;28;1827;-59
2022/03/17 06:42:19;;;;;;;;;;;;;;;;;;4218470;28;841;-61
2022/03/17 06:44:40;;;;;;;;;;;;;;;;;;4218154;28;1084;-59
2022/03/17 06:47:00;;;;;;;;;;;;;;;;;;4207085;28;1294;-60
2022/03/17 06:49:21;;;;;;;;;;;;;;;;;;4199261;28;1127;-60
2022/03/17 06:51:42;;;;;;;;;;;;;;;;;;4209655;28;1061;-59
2022/03/17 06:54:02;;;;;;;;;;;;;;;;;;4201201;28;1207;-59
2022/03/17 06:56:23;;;;;;;;;;;;;;;;;;4201527;28;1910;-60
2022/03/17 06:58:44;;;;;;;;;;;;;;;;;;4201508;28;862;-59
2022/03/17 07:01:05;;;;;;;;;;;;;;;;;;4201917;28;1172;-57
2022/03/17 07:03:25;;;;;;;;;;;;;;;;;;4212936;28;2102;-56
2022/03/17 07:05:45;;;;;;;;;;;;;;;;;;4212082;28;1487;-57
2022/03/17 07:08:06;;;;;;;;;;;;;;;;;;4201448;28;988;-57
2022/03/17 07:10:28;;;;;;;;;;;;;;;;;;4201431;28;973;-56
2022/03/17 07:12:48;;;;;;;;;;;;;;;;;;4201519;28;923;-57
2022/03/17 07:15:08;;;;;;;;;;;;;;;;;;4201571;28;1167;-57
2022/03/17 07:17:33;;;;;;;;;;;;;;;;;;4201923;28;1981;-57
2022/03/17 07:19:59;;;;;;;;;;;;;;;;;;4218214;28;958;-58
2022/03/17 07:22:20;;;;;;;;;;;;;;;;;;4211092;28;1138;-57
2022/03/17 07:24:41;;;;;;;;;;;;;;;;;;4204505;28;829;-57
2022/03/17 07:27:02;;;;;;;;;;;;;;;;;;4204427;28;992;-57
2022/03/17 07:29:23;;;;;;;;;;;;;;;;;;4189518;28;1812;-57
2022/03/17 07:31:44;;;;;;;;;;;;;;;;;;4203785;28;987;-57
2022/03/17 07:34:05;;;;;;;;;;;;;;;;;;4217181;28;1168;-57
2022/03/17 07:36:25;;;;;;;;;;;;;;;;;;4209960;28;1978;-58
2022/03/17 07:38:46;;;;;;;;;;;;;;;;;;4203953;28;1041;-58
2022/03/17 07:41:07;;;;;;;;;;;;;;;;;;4217500;28;957;-57
2022/03/17 07:43:27;;;;;;;;;;;;;;;;;;4204246;28;999;-57
2022/03/17 07:46:08;;;;;;;;;;;;;;;;;;4203861;28;878;-57
2022/03/17 07:48:47;;;;;;;;;;;;;;;;;;4215043;28;1074;-59
2022/03/17 07:51:16;;;;;;;;;;;;;;;;;;4220981;28;933;-58
2022/03/17 07:53:36;;;;;;;;;;;;;;;;;;4197740;28;1443;-58
2022/03/17 07:55:57;;;;;;;;;;;;;;;;;;4203833;28;1076;-58
2022/03/17 07:58:17;;;;;;;;;;;;;;;;;;4203926;28;2051;-60
2022/03/17 08:00:39;;;;;;;;;;;;;;;;;;4203910;28;1121;-59
2022/03/17 08:03:01;;;;;;;;;;;;;;;;;;4209414;28;1068;-59
2022/03/17 08:05:22;;;;;;;;;;;;;;;;;;4220924;28;896;-59
2022/03/17 08:07:43;;;;;;;;;;;;;;;;;;4222010;28;924;-59
2022/03/17 08:10:04;;;;;;;;;;;;;;;;;;4221831;28;805;-59
2022/03/17 08:12:26;;;;;;;;;;;;;;;;;;4220738;28;946;-60
2022/03/17 08:14:47;;;;;;;;;;;;;;;;;;4221678;28;1132;-60
2022/03/17 08:17:09;;;;;;;;;;;;;;;;;;4221823;28;1913;-59
2022/03/17 08:19:31;;;;;;;;;;;;;;;;;;4222504;28;836;-60
2022/03/17 08:21:52;;;;;;;;;;;;;;;;;;4222390;28;890;-58
2022/03/17 08:24:13;;;;;;;;;;;;;;;;;;4222448;28;926;-61
2022/03/17 08:26:34;;;;;;;;;;;;;;;;;;4216057;28;1044;-60
2022/03/17 08:28:55;;;;;;;;;;;;;;;;;;4189407;28;1212;-61
2022/03/17 08:31:16;;;;;;;;;;;;;;;;;;4210726;28;989;-60
2022/03/17 08:33:39;;;;;;;;;;;;;;;;;;4221708;28;1233;-61
2022/03/17 08:36:00;;;;;;;;;;;;;;;;;;4221797;28;842;-60
2022/03/17 08:38:21;;;;;;;;;;;;;;;;;;4221663;28;1905;-60
2022/03/17 08:40:42;;;;;;;;;;;;;;;;;;4222351;28;834;-61
2022/03/17 08:43:02;;;;;;;;;;;;;;;;;;4222111;28;988;-60
2022/03/17 08:50:40;;;;;;;;;;;;;;;;;;4207027;28;1006;-58
2022/03/17 08:53:01;;;;;;;;;;;;;;;;;;4221693;28;938;-60
2022/03/17 08:55:21;;;;;;;;;;;;;;;;;;4221828;28;1101;-62
2022/03/17 08:57:42;;;;;;;;;;;;;;;;;;4221043;28;1985;-62
2022/03/17 09:00:06;;;;;;;;;;;;;;;;;;4221893;28;975;-61
2022/03/17 09:02:27;;;;;;;;;;;;;;;;;;4204130;28;1009;-61
2022/03/17 09:04:48;;;;;;;;;;;;;;;;;;4205233;28;1008;-61
2022/03/17 09:07:08;;;;;;;;;;;;;;;;;;4218305;28;894;-60
2022/03/17 09:09:29;;;;;;;;;;;;;;;;;;4205160;28;938;-61
2022/03/17 09:11:49;;;;;;;;;;;;;;;;;;4205214;28;808;-61
2022/03/17 09:14:10;;;;;;;;;;;;;;;;;;4205409;28;853;-60
2022/03/17 09:16:33;;;;;;;;;;;;;;;;;;4204730;28;1388;-60
2022/03/17 09:18:56;;;;;;;;;;;;;;;;;;4217467;28;1105;-62
2022/03/17 09:21:18;;;;;;;;;;;;;;;;;;4221875;28;896;-60
2022/03/17 09:23:39;;;;;;;;;;;;;;;;;;4206419;28;1086;-63
2022/03/17 09:26:00;;;;;;;;;;;;;;;;;;4221431;28;1144;-62
2022/03/17 09:28:22;;;;;;;;;;;;;;;;;;4220739;28;1111;-62
2022/03/17 09:30:43;;;;;;;;;;;;;;;;;;4219844;28;964;-62
2022/03/17 09:33:05;;;;;;;;;;;;;;;;;;4218821;28;1086;-62
2022/03/17 09:35:26;;;;;;;;;;;;;;;;;;4210614;28;1494;-63
2022/03/17 09:37:47;;;;;;;;;;;;;;;;;;4203664;28;1905;-63
2022/03/17 09:40:07;;;;;;;;;;;;;;;;;;4189541;28;853;-64
2022/03/17 09:42:28;;;;;;;;;;;;;;;;;;4205167;28;939;-64
2022/03/17 09:44:51;;;;;;;;;;;;;;;;;;4189245;28;1064;-64
2022/03/17 09:47:11;;;;;;;;;;;;;;;;;;4204323;28;1058;-61
2022/03/17 09:49:33;;;;;;;;;;;;;;;;;;4188606;28;842;-63
2022/03/17 09:51:56;;;;;;;;;;;;;;;;;;4203768;28;882;-65
2022/03/17 09:54:17;;;;;;;;;;;;;;;;;;4203216;28;968;-63
2022/03/17 09:56:37;;;;;;;;;;;;;;;;;;4188114;28;944;-61
2022/03/17 09:58:58;;;;;;;;;;;;;;;;;;4203406;28;1910;-61
2022/03/17 10:01:19;;;;;;;;;;;;;;;;;;4202052;28;919;-60
2022/03/17 10:03:39;;;;;;;;;;;;;;;;;;4212072;28;1274;-60
2022/03/17 10:06:02;;;;;;;;;;;;;;;;;;4218836;28;1194;-61
2022/03/17 10:08:23;;;;;;;;;;;;;;;;;;4202962;28;1029;-61
2022/03/17 10:10:44;;;;;;;;;;;;;;;;;;4201785;28;915;-62
2022/03/17 10:13:05;;;;;;;;;;;;;;;;;;4218111;28;928;-62
2022/03/17 10:15:26;;;;;;;;;;;;;;;;;;4219318;28;1025;-61
2022/03/17 10:17:47;;;;;;;;;;;;;;;;;;4218558;28;1901;-61
2022/03/17 10:20:08;;;;;;;;;;;;;;;;;;4218958;28;847;-61
2022/03/17 10:22:28;;;;;;;;;;;;;;;;;;4203264;28;913;-61
2022/03/17 10:24:49;;;;;;;;;;;;;;;;;;4218345;28;1035;-61
2022/03/17 10:27:10;;;;;;;;;;;;;;;;;;4218798;28;976;-61
2022/03/17 10:29:31;;;;;;;;;;;;;;;;;;4203481;28;972;-61
2022/03/17 10:31:52;;;;;;;;;;;;;;;;;;4218180;28;1032;-61
2022/03/17 10:34:13;;;;;;;;;;;;;;;;;;4218378;28;1591;-61
2022/03/17 10:36:34;;;;;;;;;;;;;;;;;;4218896;28;797;-61
2022/03/17 10:38:55;;;;;;;;;;;;;;;;;;4218171;28;1910;-62
2022/03/17 10:41:16;;;;;;;;;;;;;;;;;;4218519;28;840;-61
2022/03/17 10:43:38;;;;;;;;;;;;;;;;;;4218059;28;944;-62
2022/03/17 10:45:59;;;;;;;;;;;;;;;;;;4202225;28;1268;-62
2022/03/17 10:48:19;;;;;;;;;;;;;;;;;;4217819;28;1024;-61
2022/03/17 10:50:40;;;;;;;;;;;;;;;;;;4202564;28;1006;-61
2022/03/17 10:53:01;;;;;;;;;;;;;;;;;;4213582;28;1119;-61
2022/03/17 10:55:22;;;;;;;;;;;;;;;;;;4201667;28;866;-62
2022/03/17 10:57:43;;;;;;;;;;;;;;;;;;4202308;28;1910;-62
2022/03/17 11:00:09;;;;;;;;;;;;;;;;;;4204181;28;944;-61
2022/03/17 11:02:32;;;;;;;;;;;;;;;;;;4204731;28;1345;-60
2022/03/17 11:04:52;;;;;;;;;;;;;;;;;;4220688;28;1349;-61
2022/03/17 11:07:14;;;;;;;;;;;;;;;;;;4220796;28;854;-62
2022/03/17 11:09:36;;;;;;;;;;;;;;;;;;4223166;28;911;-62
2022/03/17 11:11:56;;;;;;;;;;;;;;;;;;4222028;28;1465;-59
2022/03/17 11:14:18;;;;;;;;;;;;;;;;;;4222464;28;962;-59
2022/03/17 11:16:39;;;;;;;;;;;;;;;;;;4222697;28;967;-59
2022/03/17 11:18:59;;;;;;;;;;;;;;;;;;4222479;28;1925;-60
2022/03/17 11:21:21;;;;;;;;;;;;;;;;;;4221595;28;1182;-59
2022/03/17 11:23:41;;;;;;;;;;;;;;;;;;4222634;28;936;-60
2022/03/17 11:26:02;;;;;;;;;;;;;;;;;;4222390;28;859;-60
2022/03/17 11:28:23;;;;;;;;;;;;;;;;;;4205254;28;2563;-60
2022/03/17 11:30:43;;;;;;;;;;;;;;;;;;4220031;28;2545;-60
2022/03/17 11:33:04;;;;;;;;;;;;;;;;;;4222148;28;1129;-59
2022/03/17 11:35:25;;;;;;;;;;;;;;;;;;4222272;28;850;-59
2022/03/17 11:37:46;;;;;;;;;;;;;;;;;;4207080;28;1422;-59
2022/03/17 11:40:06;;;;;;;;;;;;;;;;;;4221332;28;973;-60
2022/03/17 11:42:27;;;;;;;;;;;;;;;;;;4222342;28;908;-59
2022/03/17 11:44:48;;;;;;;;;;;;;;;;;;4221689;28;1084;-60
2022/03/17 11:47:08;;;;;;;;;;;;;;;;;;4222052;28;1091;-60
2022/03/17 11:49:30;;;;;;;;;;;;;;;;;;4222236;28;1017;-60
2022/03/17 11:51:51;;;;;;;;;;;;;;;;;;4222224;28;939;-61
2022/03/17 11:54:11;;;;;;;;;;;;;;;;;;4221930;28;859;-60
2022/03/17 11:56:32;;;;;;;;;;;;;;;;;;4221905;28;946;-60
2022/03/17 11:58:54;;;;;;;;;;;;;;;;;;4221705;28;1992;-60
2022/03/17 12:01:14;;;;;;;;;;;;;;;;;;4206295;28;869;-61
2022/03/17 12:03:37;;;;;;;;;;;;;;;;;;4205905;28;1406;-60
2022/03/17 12:05:59;;;;;;;;;;;;;;;;;;4221743;28;1036;-60
2022/03/17 12:08:20;;;;;;;;;;;;;;;;;;4221434;28;816;-60
2022/03/17 12:10:41;;;;;;;;;;;;;;;;;;4221851;28;887;-60
2022/03/17 12:13:02;;;;;;;;;;;;;;;;;;4221816;28;1480;-56
2022/03/17 12:15:22;;;;;;;;;;;;;;;;;;4221521;28;834;-56
2022/03/17 12:17:46;;;;;;;;;;;;;;;;;;4205868;28;1015;-56
2022/03/17 12:20:07;;;;;;;;;;;;;;;;;;4221604;28;857;-56
2022/03/17 12:22:27;;;;;;;;;;;;;;;;;;4221488;28;1020;-56
2022/03/17 12:24:48;;;;;;;;;;;;;;;;;;4205892;28;884;-56
2022/03/17 12:27:09;;;;;;;;;;;;;;;;;;4221428;28;871;-56
2022/03/17 12:29:29;;;;;;;;;;;;;;;;;;4204741;28;967;-56
2022/03/17 12:31:49;;;;;;;;;;;;;;;;;;4203642;28;905;-56
2022/03/17 12:34:10;;;;;;;;;;;;;;;;;;4203900;28;1148;-55
2022/03/17 12:36:31;;;;;;;;;;;;;;;;;;4221469;28;975;-56
2022/03/17 12:38:52;;;;;;;;;;;;;;;;;;4206209;28;1980;-56
2022/03/17 12:41:13;;;;;;;;;;;;;;;;;;4205863;28;1147;-57
2022/03/17 12:43:34;;;;;;;;;;;;;;;;;;4221410;28;974;-58
2022/03/17 12:45:56;;;;;;;;;;;;;;;;;;4221371;28;1088;-58
2022/03/17 12:48:17;;;;;;;;;;;;;;;;;;4221373;28;1149;-58
2022/03/17 12:50:37;;;;;;;;;;;;;;;;;;4221473;28;814;-58
2022/03/17 12:52:59;;;;;;;;;;;;;;;;;;4221490;28;1020;-58
2022/03/17 12:55:21;;;;;;;;;;;;;;;;;;4220352;28;848;-57
2022/03/17 12:57:41;;;;;;;;;;;;;;;;;;4221186;28;932;-58
2022/03/17 13:00:04;;;;;;;;;;;;;;;;;;4221133;28;1980;-58
2022/03/17 13:02:24;;;;;;;;;;;;;;;;;;4221376;28;1117;-57
2022/03/17 13:04:45;;;;;;;;;;;;;;;;;;4203545;28;827;-58
2022/03/17 13:07:05;;;;;;;;;;;;;;;;;;4204499;28;988;-58
2022/03/17 13:09:25;;;;;;;;;;;;;;;;;;4204559;28;820;-57
2022/03/17 13:14:25;;;;;;;;;;;;;;;;;;4204572;28;1253;-58
2022/03/17 13:16:46;;;;;;;;;;;;;;;;;;4204461;28;1007;-58
2022/03/17 13:19:08;;;;;;;;;;;;;;;;;;4218141;28;1975;-58
2022/03/17 13:21:29;;;;;;;;;;;;;;;;;;4219705;28;1206;-58
2022/03/17 13:23:49;;;;;;;;;;;;;;;;;;4221075;28;986;-58
2022/03/17 13:26:10;;;;;;;;;;;;;;;;;;4219146;28;2618;-58
2022/03/17 13:28:31;;;;;;;;;;;;;;;;;;4203502;28;2132;-58
2022/03/17 13:30:51;;;;;;;;;;;;;;;;;;4206768;28;2016;-58
2022/03/17 13:33:13;;;;;;;;;;;;;;;;;;4217499;28;1775;-58
2022/03/17 13:35:34;;;;;;;;;;;;;;;;;;4216158;28;1420;-57
2022/03/17 13:37:54;;;;;;;;;;;;;;;;;;4210494;28;1850;-57
2022/03/17 13:40:16;;;;;;;;;;;;;;;;;;4214083;28;2059;-57
2022/03/17 13:42:36;;;;;;;;;;;;;;;;;;4198905;28;1678;-58
2022/03/17 13:44:57;;;;;;;;;;;;;;;;;;4215875;28;1758;-57
2022/03/17 13:47:19;;;;;;;;;;;;;;;;;;4219791;28;1740;-56
2022/03/17 13:49:40;;;;;;;;;;;;;;;;;;4219587;28;1478;-57
2022/03/17 13:52:01;;;;;;;;;;;;;;;;;;4218886;28;934;-56
2022/03/17 13:54:21;;;;;;;;;;;;;;;;;;4219129;28;1090;-57
2022/03/17 13:56:42;;;;;;;;;;;;;;;;;;4204815;28;850;-57
2022/03/17 13:59:02;;;;;;;;;;;;;;;;;;4220695;28;1917;-56
2022/03/17 14:01:24;;;;;;;;;;;;;;;;;;4219705;28;876;-57
2022/03/17 14:03:45;;;;;;;;;;;;;;;;;;4216879;28;1109;-57
2022/03/17 14:06:06;;;;;;;;;;;;;;;;;;4203748;28;1234;-58
2022/03/17 14:08:26;;;;;;;;;;;;;;;;;;4205584;28;1951;-58
2022/03/17 14:10:47;;;;;;;;;;;;;;;;;;4207270;28;1142;-58
2022/03/17 14:13:08;;;;;;;;;;;;;;;;;;4220544;28;878;-58
2022/03/17 14:15:28;;;;;;;;;;;;;;;;;;4219446;28;1019;-58
2022/03/17 14:17:49;;;;;;;;;;;;;;;;;;4206176;28;1324;-59
2022/03/17 14:20:10;;;;;;;;;;;;;;;;;;4203330;28;1984;-58
2022/03/17 14:25:09;;;;;;;;;;;;;;;;;;4202123;28;1155;-58
2022/03/17 14:27:30;;;;;;;;;;;;;;;;;;4205193;28;1791;-60
2022/03/17 14:29:51;;;;;;;;;;;;;;;;;;4199207;28;1148;-58
2022/03/17 14:32:11;;;;;;;;;;;;;;;;;;4217844;28;931;-59
2022/03/17 14:34:32;;;;;;;;;;;;;;;;;;4219297;28;842;-57
2022/03/17 15:45:43;;;;;;;;;;;;;;;;;;4194377;28;945;-62
2022/03/17 15:48:05;;;;;;;;;;;;;;;;;;4201579;28;1454;-62
2022/03/17 15:50:26;;;;;;;;;;;;;;;;;;4202610;28;936;-62
2022/03/17 15:52:47;;;;;;;;;;;;;;;;;;4188103;28;846;-63
2022/03/17 15:55:09;;;;;;;;;;;;;;;;;;4202404;28;1138;-62
2022/03/17 15:57:31;;;;;;;;;;;;;;;;;;4201105;28;1023;-63
2022/03/17 15:59:52;;;;;;;;;;;;;;;;;;4202886;28;1977;-63
2022/03/17 16:02:12;;;;;;;;;;;;;;;;;;4202717;28;924;-61
2022/03/17 16:04:34;;;;;;;;;;;;;;;;;;4201240;28;998;-60
2022/03/17 16:06:55;;;;;;;;;;;;;;;;;;4183858;28;948;-62
2022/03/17 16:09:16;;;;;;;;;;;;;;;;;;4202584;28;914;-60
2022/03/17 16:14:29;;;;;;;;;;;;;;;;;;4173195;28;1087;-60
2022/03/17 16:16:50;;;;;;;;;;;;;;;;;;4202258;28;872;-61
2022/03/17 16:19:11;;;;;;;;;;;;;;;;;;4200461;28;1087;-60
2022/03/17 16:21:32;;;;;;;;;;;;;;;;;;4201726;28;979;-60
2022/03/17 16:23:53;;;;;;;;;;;;;;;;;;4187390;28;901;-61
2022/03/17 16:26:15;;;;;;;;;;;;;;;;;;4200854;28;1159;-63
2022/03/17 16:28:35;;;;;;;;;;;;;;;;;;4187963;28;1312;-62
2022/03/17 16:30:57;;;;;;;;;;;;;;;;;;4204195;28;1012;-61
2022/03/17 16:33:18;;;;;;;;;;;;;;;;;;4203308;28;1087;-61
2022/03/17 16:35:38;;;;;;;;;;;;;;;;;;4203500;28;1030;-62
2022/03/17 16:38:03;;;;;;;;;;;;;;;;;;4202481;28;957;-62
2022/03/17 16:40:24;;;;;;;;;;;;;;;;;;4187764;28;1982;-62
2022/03/17 16:42:46;;;;;;;;;;;;;;;;;;4203633;28;891;-61
2022/03/17 16:45:08;;;;;;;;;;;;;;;;;;4217525;28;1072;-64
2022/03/17 16:47:29;;;;;;;;;;;;;;;;;;4219708;28;1151;-62
2022/03/17 16:49:50;;;;;;;;;;;;;;;;;;4203512;28;1297;-63
2022/03/17 16:52:11;;;;;;;;;;;;;;;;;;4184463;28;895;-62
2022/03/17 16:54:32;;;;;;;;;;;;;;;;;;4202918;28;935;-63
2022/03/17 16:56:58;;;;;;;;;;;;;;;;;;4202911;28;928;-62
2022/03/17 16:59:43;;;;;;;;;;;;;;;;;;4201984;28;1921;-62
2022/03/17 17:02:06;;;;;;;;;;;;;;;;;;4200869;28;960;-63
2022/03/17 17:04:27;;;;;;;;;;;;;;;;;;4218436;28;1068;-63
2022/03/17 17:06:48;;;;;;;;;;;;;;;;;;4203847;28;939;-63
2022/03/17 17:09:08;;;;;;;;;;;;;;;;;;4218761;28;1166;-63
2022/03/17 17:11:30;;;;;;;;;;;;;;;;;;4213832;28;1386;-64
2022/03/17 17:13:52;;;;;;;;;;;;;;;;;;4202857;28;1207;-60
2022/03/17 17:16:14;;;;;;;;;;;;;;;;;;4184693;28;1019;-60
2022/03/17 17:18:36;;;;;;;;;;;;;;;;;;4200820;28;1155;-61
2022/03/17 17:20:58;;;;;;;;;;;;;;;;;;4201917;28;1909;-64
2022/03/17 17:31:48;;;;;;;;;;;;;;;;;;4186736;28;834;-61
2022/03/17 17:34:10;;;;;;;;;;;;;;;;;;4200745;28;1117;-61
2022/03/17 17:36:32;;;;;;;;;;;;;;;;;;4202927;28;1045;-61
2022/03/17 17:38:54;;;;;;;;;;;;;;;;;;4203481;28;1149;-61
2022/03/17 17:41:16;;;;;;;;;;;;;;;;;;4185159;28;1975;-66
2022/03/17 17:43:40;;;;;;;;;;;;;;;;;;4174363;28;1369;-60
2022/03/17 17:46:01;;;;;;;;;;;;;;;;;;4203690;28;1013;-62
2022/03/17 17:48:23;;;;;;;;;;;;;;;;;;4202918;28;1113;-62
2022/03/17 17:50:47;;;;;;;;;;;;;;;;;;4203736;28;838;-61
2022/03/17 17:53:08;;;;;;;;;;;;;;;;;;4188351;28;958;-63
2022/03/17 17:55:30;;;;;;;;;;;;;;;;;;4184511;28;1114;-63
2022/03/17 17:57:55;;;;;;;;;;;;;;;;;;4203220;28;835;-63
2022/03/17 18:00:17;;;;;;;;;;;;;;;;;;4203412;28;1930;-61
2022/03/17 18:02:38;;;;;;;;;;;;;;;;;;4216762;28;1086;-60
2022/03/17 18:04:59;;;;;;;;;;;;;;;;;;4203308;28;940;-59
2022/03/17 18:07:22;;;;;;;;;;;;;;;;;;4203158;28;891;-61
2022/03/17 18:09:47;;;;;;;;;;;;;;;;;;4202673;28;1491;-59
2022/03/17 18:12:08;;;;;;;;;;;;;;;;;;4219036;28;1312;-59
2022/03/17 18:14:30;;;;;;;;;;;;;;;;;;4193393;28;1800;-59